sensor_id;sensor_type;location;lat;lon;timestamp;pressure;altitude;pressure_sealevel;temperature;humidity
44385;BME280;30101;32.778;34.994;2023-02-18T00:04:26;98813.31;;;9.81;60.10
44385;BME280;30101;32.778;34.994;2023-02-18T00:09:29;98809.16;;;9.79;59.54
44385;BME280;30101;32.778;34.994;2023-02-18T00:14:32;98814.31;;;9.80;60.28
44385;BME280;30101;32.778;34.994;2023-02-18T00:19:35;98819.00;;;9.78;59.96
44385;BME280;30101;32.778;34.994;2023-02-18T00:24:39;98815.50;;;9.78;59.46
44385;BME280;30101;32.778;34.994;2023-02-18T00:29:42;98802.53;;;9.75;59.98
44385;BME280;30101;32.778;34.994;2023-02-18T00:34:45;98796.72;;;9.71;59.39
44385;BME280;30101;32.778;34.994;2023-02-18T00:39:48;98794.06;;;9.71;59.47
44385;BME280;30101;32.778;34.994;2023-02-18T00:44:52;98791.38;;;9.71;59.66
44385;BME280;30101;32.778;34.994;2023-02-18T00:49:56;98781.91;;;9.68;60.18
44385;BME280;30101;32.778;34.994;2023-02-18T00:54:59;98784.75;;;9.67;59.49
44385;BME280;30101;32.778;34.994;2023-02-18T01:00:06;98781.44;;;9.65;59.81
44385;BME280;30101;32.778;34.994;2023-02-18T01:05:10;98775.47;;;9.63;59.71
44385;BME280;30101;32.778;34.994;2023-02-18T01:10:13;98776.81;;;9.59;59.94
44385;BME280;30101;32.778;34.994;2023-02-18T01:15:17;98772.69;;;9.56;60.09
44385;BME280;30101;32.778;34.994;2023-02-18T01:20:20;98775.34;;;9.56;59.73
44385;BME280;30101;32.778;34.994;2023-02-18T01:25:23;98769.19;;;9.56;59.95
44385;BME280;30101;32.778;34.994;2023-02-18T01:30:26;98770.00;;;9.56;59.89
44385;BME280;30101;32.778;34.994;2023-02-18T01:35:30;98766.88;;;9.53;59.37
44385;BME280;30101;32.778;34.994;2023-02-18T01:40:33;98770.00;;;9.56;59.79
44385;BME280;30101;32.778;34.994;2023-02-18T01:51:25;98761.00;;;9.57;59.63
44385;BME280;30101;32.778;34.994;2023-02-18T01:56:48;98750.34;;;9.57;59.87
44385;BME280;30101;32.778;34.994;2023-02-18T02:01:53;98747.88;;;9.56;59.73
44385;BME280;30101;32.778;34.994;2023-02-18T02:06:59;98744.34;;;9.55;59.71
44385;BME280;30101;32.778;34.994;2023-02-18T02:17:31;98722.66;;;9.58;59.56
44385;BME280;30101;32.778;34.994;2023-02-18T02:28:56;98734.63;;;9.62;59.46
44385;BME280;30101;32.778;34.994;2023-02-18T02:39:07;98736.63;;;9.60;59.26
44385;BME280;30101;32.778;34.994;2023-02-18T02:44:21;98734.97;;;9.59;59.41
44385;BME280;30101;32.778;34.994;2023-02-18T02:49:49;98737.31;;;9.62;58.90
44385;BME280;30101;32.778;34.994;2023-02-18T02:54:55;98734.25;;;9.65;59.38
44385;BME280;30101;32.778;34.994;2023-02-18T03:00:07;98730.59;;;9.66;58.53
44385;BME280;30101;32.778;34.994;2023-02-18T03:11:12;98726.28;;;9.80;58.29
44385;BME280;30101;32.778;34.994;2023-02-18T03:21:31;98729.63;;;9.82;58.49
44385;BME280;30101;32.778;34.994;2023-02-18T03:26:43;98720.78;;;9.82;58.49
44385;BME280;30101;32.778;34.994;2023-02-18T03:31:54;98719.41;;;9.86;57.94
44385;BME280;30101;32.778;34.994;2023-02-18T03:37:00;98713.91;;;9.87;57.80
44385;BME280;30101;32.778;34.994;2023-02-18T03:42:05;98724.56;;;9.87;57.80
44385;BME280;30101;32.778;34.994;2023-02-18T03:47:08;98727.25;;;9.87;58.15
44385;BME280;30101;32.778;34.994;2023-02-18T03:52:12;98720.31;;;9.78;58.14
44385;BME280;30101;32.778;34.994;2023-02-18T03:57:15;98732.81;;;9.78;58.00
44385;BME280;30101;32.778;34.994;2023-02-18T04:02:18;98742.84;;;9.76;57.67
44385;BME280;30101;32.778;34.994;2023-02-18T04:07:21;98744.41;;;9.70;57.78
44385;BME280;30101;32.778;34.994;2023-02-18T04:12:24;98762.44;;;9.68;57.68
44385;BME280;30101;32.778;34.994;2023-02-18T04:17:28;98752.63;;;9.60;57.97
44385;BME280;30101;32.778;34.994;2023-02-18T04:22:31;98758.53;;;9.56;57.96
44385;BME280;30101;32.778;34.994;2023-02-18T04:27:37;98759.69;;;9.53;58.01
44385;BME280;30101;32.778;34.994;2023-02-18T04:32:41;98766.69;;;9.54;57.65
44385;BME280;30101;32.778;34.994;2023-02-18T04:37:44;98773.41;;;9.50;58.19
44385;BME280;30101;32.778;34.994;2023-02-18T04:42:47;98774.22;;;9.51;57.95
44385;BME280;30101;32.778;34.994;2023-02-18T04:47:51;98769.91;;;9.50;58.05
44385;BME280;30101;32.778;34.994;2023-02-18T04:52:54;98767.47;;;9.63;57.60
44385;BME280;30101;32.778;34.994;2023-02-18T04:57:58;98774.38;;;9.72;57.78
44385;BME280;30101;32.778;34.994;2023-02-18T05:03:01;98771.28;;;9.83;57.76
44385;BME280;30101;32.778;34.994;2023-02-18T05:08:04;98783.38;;;9.94;57.71
44385;BME280;30101;32.778;34.994;2023-02-18T05:13:07;98780.53;;;10.10;56.58
44385;BME280;30101;32.778;34.994;2023-02-18T05:18:11;98783.91;;;10.27;56.76
44385;BME280;30101;32.778;34.994;2023-02-18T05:23:14;98799.28;;;10.40;56.98
44385;BME280;30101;32.778;34.994;2023-02-18T05:28:17;98795.69;;;10.47;56.19
44385;BME280;30101;32.778;34.994;2023-02-18T05:33:21;98791.66;;;10.51;55.97
44385;BME280;30101;32.778;34.994;2023-02-18T05:38:24;98804.28;;;10.58;56.40
44385;BME280;30101;32.778;34.994;2023-02-18T05:43:27;98803.69;;;10.62;55.64
44385;BME280;30101;32.778;34.994;2023-02-18T05:48:31;98806.75;;;10.89;56.31
44385;BME280;30101;32.778;34.994;2023-02-18T05:53:34;98814.69;;;11.18;55.52
44385;BME280;30101;32.778;34.994;2023-02-18T05:58:37;98812.91;;;11.40;54.83
44385;BME280;30101;32.778;34.994;2023-02-18T06:03:40;98826.13;;;11.48;54.81
44385;BME280;30101;32.778;34.994;2023-02-18T06:08:43;98832.84;;;11.59;54.42
44385;BME280;30101;32.778;34.994;2023-02-18T06:13:46;98834.00;;;11.71;54.74
44385;BME280;30101;32.778;34.994;2023-02-18T06:18:50;98837.28;;;11.88;54.27
44385;BME280;30101;32.778;34.994;2023-02-18T06:23:53;98835.16;;;12.26;53.64
44385;BME280;30101;32.778;34.994;2023-02-18T06:28:56;98831.34;;;12.42;53.28
44385;BME280;30101;32.778;34.994;2023-02-18T06:34:00;98825.44;;;12.25;52.71
44385;BME280;30101;32.778;34.994;2023-02-18T06:39:04;98836.16;;;12.53;52.09
44385;BME280;30101;32.778;34.994;2023-02-18T06:44:07;98834.78;;;12.36;52.87
44385;BME280;30101;32.778;34.994;2023-02-18T06:49:11;98839.03;;;12.24;52.88
44385;BME280;30101;32.778;34.994;2023-02-18T06:54:14;98831.63;;;12.26;52.76
44385;BME280;30101;32.778;34.994;2023-02-18T06:59:17;98838.72;;;12.68;51.94
44385;BME280;30101;32.778;34.994;2023-02-18T07:04:20;98843.38;;;13.22;50.40
44385;BME280;30101;32.778;34.994;2023-02-18T07:09:23;98848.38;;;12.97;50.92
44385;BME280;30101;32.778;34.994;2023-02-18T07:14:27;98849.28;;;12.76;51.26
44385;BME280;30101;32.778;34.994;2023-02-18T07:19:30;98844.28;;;12.66;51.02
44385;BME280;30101;32.778;34.994;2023-02-18T07:24:33;98844.28;;;12.66;51.06
44385;BME280;30101;32.778;34.994;2023-02-18T07:29:36;98842.66;;;12.72;50.69
44385;BME280;30101;32.778;34.994;2023-02-18T07:34:39;98842.13;;;12.83;50.84
44385;BME280;30101;32.778;34.994;2023-02-18T07:39:46;98847.34;;;12.98;50.32
44385;BME280;30101;32.778;34.994;2023-02-18T07:44:49;98839.06;;;13.28;49.68
44385;BME280;30101;32.778;34.994;2023-02-18T07:49:52;98841.25;;;13.85;48.13
44385;BME280;30101;32.778;34.994;2023-02-18T07:54:56;98834.88;;;13.93;47.66
44385;BME280;30101;32.778;34.994;2023-02-18T07:59:59;98837.75;;;13.71;47.88
44385;BME280;30101;32.778;34.994;2023-02-18T08:05:02;98847.81;;;13.63;48.39
44385;BME280;30101;32.778;34.994;2023-02-18T08:10:06;98847.00;;;13.62;48.48
44385;BME280;30101;32.778;34.994;2023-02-18T08:15:09;98841.84;;;13.61;48.07
44385;BME280;30101;32.778;34.994;2023-02-18T08:20:13;98836.25;;;13.62;48.10
44385;BME280;30101;32.778;34.994;2023-02-18T08:25:16;98841.22;;;13.65;48.35
44385;BME280;30101;32.778;34.994;2023-02-18T08:30:31;98841.03;;;13.73;47.92
44385;BME280;30101;32.778;34.994;2023-02-18T08:35:34;98819.56;;;13.73;47.89
44385;BME280;30101;32.778;34.994;2023-02-18T08:40:38;98825.97;;;13.79;48.16
44385;BME280;30101;32.778;34.994;2023-02-18T08:45:42;98819.78;;;13.92;48.37
44385;BME280;30101;32.778;34.994;2023-02-18T08:50:46;98823.53;;;13.97;48.19
44385;BME280;30101;32.778;34.994;2023-02-18T08:55:50;98815.25;;;13.99;48.60
44385;BME280;30101;32.778;34.994;2023-02-18T09:00:53;98818.53;;;13.94;48.62
44385;BME280;30101;32.778;34.994;2023-02-18T09:05:58;98802.66;;;13.93;48.91
44385;BME280;30101;32.778;34.994;2023-02-18T09:11:02;98802.44;;;14.01;48.95
44385;BME280;30101;32.778;34.994;2023-02-18T09:16:10;98798.31;;;14.05;49.05
44385;BME280;30101;32.778;34.994;2023-02-18T09:21:16;98784.06;;;14.11;49.38
44385;BME280;30101;32.778;34.994;2023-02-18T09:26:21;98779.72;;;14.17;49.26
44385;BME280;30101;32.778;34.994;2023-02-18T09:31:26;98763.81;;;14.22;49.64
44385;BME280;30101;32.778;34.994;2023-02-18T09:36:33;98754.50;;;14.31;49.76
44385;BME280;30101;32.778;34.994;2023-02-18T09:41:46;98750.97;;;14.37;49.62
44385;BME280;30101;32.778;34.994;2023-02-18T09:47:04;98749.31;;;14.43;49.33
44385;BME280;30101;32.778;34.994;2023-02-18T09:57:25;98736.50;;;14.51;49.58
44385;BME280;30101;32.778;34.994;2023-02-18T10:02:30;98720.56;;;14.56;50.03
44385;BME280;30101;32.778;34.994;2023-02-18T10:07:35;98720.34;;;14.58;50.61
44385;BME280;30101;32.778;34.994;2023-02-18T10:12:41;98709.81;;;14.56;50.75
44385;BME280;30101;32.778;34.994;2023-02-18T10:17:47;98705.06;;;14.59;50.73
